Hakuseimaru No.11 — JD2069 — position and weather

sailwx.info

Track history (hours):
 
Tides and Currents Weather Stations Pressure Air Temp Water Temp Dewpoint Dewpoint Depression Visibility Wind Speed Wind Dir Waves Ship Positions

Hakuseimaru No.11

Last reported at 2017-Dec-11 17:00 UTC. Time now 2017-Dec-12 21:53 UTC.
Position N 35°23' E 139°40'.

Length 62 m; draft 3.5 m.

Type: Tanker. MMSI: 431501815.

Date/timePositionNaut miles runAvg speedWind from/ knotsBaromVisibWave heightAir tempDewpointWater temp
2017-Dec-11 17:00N 35°23' E 139°40'0 0.0
2017-Dec-11 16:30N 35°23' E 139°40'0 0.0
2017-Dec-11 16:00N 35°23' E 139°40'0 0.0
2017-Dec-11 15:30N 35°23' E 139°40'0 0.0
2017-Dec-11 15:00N 35°23' E 139°40'0 0.0
2017-Dec-11 14:30N 35°23' E 139°40'0 0.0
2017-Dec-11 14:01N 35°23' E 139°40'0 0.0
2017-Dec-11 13:30N 35°23' E 139°40'0 0.0
2017-Dec-11 13:00N 35°23' E 139°40'0 0.0
2017-Dec-11 12:30N 35°23' E 139°40'0 0.0
2017-Dec-11 12:00N 35°23' E 139°40'0 0.0
2017-Dec-11 11:30N 35°23' E 139°40'0 0.0
2017-Dec-11 10:58N 35°23' E 139°40'0 0.0
2017-Dec-11 10:30N 35°23' E 139°40'0 0.0
2017-Dec-11 10:00N 35°23' E 139°40'0 0.0
2017-Dec-11 09:30N 35°23' E 139°40'0 0.1
2017-Dec-11 09:00N 35°23' E 139°40'0 0.0
2017-Dec-11 08:30N 35°23' E 139°40'0 0.0
2017-Dec-11 08:00N 35°23' E 139°40'0 0.0
2017-Dec-11 07:27N 35°23' E 139°40'0 1.0
2017-Dec-11 07:00N 35°23' E 139°40'2 3.7
2017-Dec-11 06:30N 35°25' E 139°39'0 0.0
2017-Dec-11 05:59N 35°25' E 139°39'0 0.0
2017-Dec-11 05:29N 35°25' E 139°39'0 0.1
2017-Dec-11 04:59N 35°25' E 139°39'0 0.0
2017-Dec-11 04:29N 35°25' E 139°39'0 0.0
2017-Dec-11 03:59N 35°25' E 139°39'0 0.1
2017-Dec-11 03:29N 35°25' E 139°39'0 0.1
2017-Dec-11 02:50N 35°25' E 139°39'1 2.4
2017-Dec-11 02:30N 35°24' E 139°40'3 6.5
2017-Dec-11 02:00N 35°26' E 139°43'4 8.0
2017-Dec-11 01:30N 35°30' E 139°44'1 2.3
2017-Dec-11 01:00N 35°31' E 139°45'0 0.0
2017-Dec-11 00:30N 35°31' E 139°45'0 0.0
2017-Dec-11 00:00N 35°31' E 139°45'0 0.0
2017-Dec-10 23:30N 35°31' E 139°45'0 0.0
2017-Dec-10 23:00N 35°31' E 139°45'0 0.3
2017-Dec-10 22:30N 35°31' E 139°45'4 7.2
2017-Dec-10 22:00N 35°28' E 139°42'4 8.7
2017-Dec-10 21:30N 35°24' E 139°42'2 3.8
2017-Dec-10 21:00N 35°23' E 139°40'0 0.1
2017-Dec-10 20:29N 35°23' E 139°40'0 0.0
2017-Dec-10 19:59N 35°23' E 139°40'0 0.0
2017-Dec-10 19:26N 35°23' E 139°40'0 0.1
2017-Dec-10 18:56N 35°23' E 139°40'0 0.0
2017-Dec-10 18:29N 35°23' E 139°40'0 0.0
2017-Dec-10 17:59N 35°23' E 139°40'0 0.0
2017-Dec-10 17:29N 35°23' E 139°40'0 0.0
2017-Dec-10 16:50N 35°23' E 139°40'0 0.0
2017-Dec-10 16:29N 35°23' E 139°40'0 0.0
2017-Dec-10 15:56N 35°23' E 139°40'0 0.0
2017-Dec-10 15:29N 35°23' E 139°40'0 0.0
2017-Dec-10 14:59N 35°23' E 139°40'0 0.0
2017-Dec-10 14:29N 35°23' E 139°40'0 0.0
2017-Dec-10 13:59N 35°23' E 139°40'0 0.1
2017-Dec-10 13:29N 35°23' E 139°40'0 0.1
2017-Dec-10 12:59N 35°23' E 139°40'0 0.0
2017-Dec-10 12:29N 35°23' E 139°40'0 0.1
2017-Dec-10 11:59N 35°23' E 139°40'0 0.1
2017-Dec-10 11:23N 35°23' E 139°40'0 0.1
2017-Dec-10 10:59N 35°23' E 139°40'0 0.0
2017-Dec-10 10:29N 35°23' E 139°40'0 0.0
2017-Dec-10 09:59N 35°23' E 139°40'0 0.1
2017-Dec-10 09:26N 35°23' E 139°40'0 0.1
2017-Dec-10 08:59N 35°23' E 139°40'0 0.0
2017-Dec-10 08:29N 35°23' E 139°40'0 0.0
2017-Dec-10 07:59N 35°23' E 139°40'0 0.0
2017-Dec-10 07:29N 35°23' E 139°40'0 0.0
2017-Dec-10 06:59N 35°23' E 139°40'2 4.0
2017-Dec-10 06:30N 35°24' E 139°39'0 0.7
2017-Dec-10 06:00N 35°25' E 139°39'0 0.0
2017-Dec-10 05:30N 35°25' E 139°39'0 0.0
2017-Dec-10 05:00N 35°25' E 139°39'0 0.0
2017-Dec-10 04:30N 35°25' E 139°39'0 0.0
2017-Dec-10 04:00N 35°25' E 139°39'0 0.0
2017-Dec-10 03:30N 35°25' E 139°39'0 0.0
2017-Dec-10 03:00N 35°25' E 139°39'0 0.0
2017-Dec-10 02:31N 35°25' E 139°39'3 6.4
2017-Dec-10 02:01N 35°25' E 139°43'510.4
2017-Dec-10 01:31N 35°28' E 139°47'3 6.3
2017-Dec-10 01:00N 35°31' E 139°45'0 0.1
2017-Dec-10 00:30N 35°31' E 139°45'0 0.0
2017-Dec-10 00:00N 35°31' E 139°45'0 0.0
2017-Dec-09 23:30N 35°31' E 139°45'0 0.0
2017-Dec-09 23:01N 35°31' E 139°45'0 0.0
2017-Dec-09 22:30N 35°31' E 139°45'3 6.9
2017-Dec-09 22:01N 35°29' E 139°42'4 8.8
2017-Dec-09 21:30N 35°24' E 139°42'2 4.2
2017-Dec-09 21:01N 35°23' E 139°40'0 0.0
2017-Dec-09 20:28N 35°23' E 139°40'0 0.1
2017-Dec-09 19:58N 35°23' E 139°40'0 0.0
2017-Dec-09 19:28N 35°23' E 139°40'0 0.0
2017-Dec-09 18:58N 35°23' E 139°40'0 0.0
2017-Dec-09 18:28N 35°23' E 139°40'0 0.0
2017-Dec-09 17:58N 35°23' E 139°40'0 0.0
2017-Dec-09 17:28N 35°23' E 139°40'0 0.0
2017-Dec-09 16:58N 35°23' E 139°40'0 0.0
2017-Dec-09 16:28N 35°23' E 139°40'0 0.0
2017-Dec-09 15:58N 35°23' E 139°40'0 0.0
2017-Dec-09 15:28N 35°23' E 139°40'0 0.0
2017-Dec-09 14:58N 35°23' E 139°40'0 0.0
2017-Dec-09 14:28N 35°23' E 139°40'0 0.0
2017-Dec-09 13:58N 35°23' E 139°40'0 0.0
2017-Dec-09 13:28N 35°23' E 139°40'0 0.1
2017-Dec-09 12:58N 35°23' E 139°40'0 0.0
2017-Dec-09 12:28N 35°23' E 139°40'0 0.0
2017-Dec-09 11:58N 35°23' E 139°40'0 0.0
2017-Dec-09 11:28N 35°23' E 139°40'0 0.0
2017-Dec-09 10:58N 35°23' E 139°40'0 0.0
2017-Dec-09 10:28N 35°23' E 139°40'0 0.0
2017-Dec-09 09:55N 35°23' E 139°40'0 0.1
2017-Dec-09 09:28N 35°23' E 139°40'0 0.1
2017-Dec-09 08:58N 35°23' E 139°40'0 0.0
2017-Dec-09 08:28N 35°23' E 139°40'0 0.1
2017-Dec-09 07:55N 35°23' E 139°40'0 0.1
2017-Dec-09 07:25N 35°23' E 139°40'0 0.0
2017-Dec-09 06:58N 35°23' E 139°40'0 0.8
2017-Dec-09 06:30N 35°23' E 139°40'2 3.7
2017-Dec-09 06:00N 35°25' E 139°39'0 0.0
2017-Dec-09 05:29N 35°25' E 139°39'0 0.0
2017-Dec-09 04:56N 35°25' E 139°39'0 0.0
2017-Dec-09 04:29N 35°25' E 139°39'0 0.0
2017-Dec-09 03:59N 35°25' E 139°39'0 0.0
2017-Dec-09 03:26N 35°25' E 139°39'0 0.0
2017-Dec-09 02:59N 35°25' E 139°39'0 0.0
2017-Dec-09 02:29N 35°25' E 139°39'2 4.7
2017-Dec-09 02:01N 35°23' E 139°41'5 9.7
2017-Dec-09 01:30N 35°28' E 139°42'4 7.6
2017-Dec-09 01:00N 35°31' E 139°45'0 0.1
2017-Dec-09 00:29N 35°31' E 139°45'0 0.0
2017-Dec-08 23:59N 35°31' E 139°45'0 0.0
2017-Dec-08 23:30N 35°31' E 139°45'0 0.0
2017-Dec-08 23:00N 35°31' E 139°45'0 0.1
2017-Dec-08 22:31N 35°31' E 139°45'3 6.7
2017-Dec-08 22:01N 35°29' E 139°42'4 7.9
2017-Dec-08 21:30N 35°25' E 139°43'3 5.4
2017-Dec-08 21:00N 35°23' E 139°40'0 0.1
2017-Dec-08 20:30N 35°23' E 139°40'0 0.1
2017-Dec-08 20:00N 35°23' E 139°40'0 0.0
2017-Dec-08 19:30N 35°23' E 139°40'0 0.1
2017-Dec-08 19:00N 35°23' E 139°40'0 0.1
2017-Dec-08 18:31N 35°23' E 139°40'0 0.0
2017-Dec-08 18:00N 35°23' E 139°40'0 0.1
2017-Dec-08 17:31N 35°23' E 139°40'0 0.0
2017-Dec-08 17:00N 35°23' E 139°40'0 0.0
2017-Dec-08 16:30N 35°23' E 139°40'0 0.0
2017-Dec-08 16:01N 35°23' E 139°40'0 0.0
2017-Dec-08 15:30N 35°23' E 139°40'0 0.0
2017-Dec-08 15:01N 35°23' E 139°40'0 0.0
2017-Dec-08 14:31N 35°23' E 139°40'0 0.0
2017-Dec-08 14:01N 35°23' E 139°40'0 0.0
2017-Dec-08 13:31N 35°23' E 139°40'0 0.0
2017-Dec-08 12:59N 35°23' E 139°40'0 0.0
2017-Dec-08 12:29N 35°23' E 139°40'0 0.1
2017-Dec-08 11:59N 35°23' E 139°40'0 0.0
2017-Dec-08 11:29N 35°23' E 139°40'0 0.0
2017-Dec-08 10:56N 35°23' E 139°40'0 0.0
2017-Dec-08 10:29N 35°23' E 139°40'0 0.1
2017-Dec-08 09:59N 35°23' E 139°40'0 0.0
2017-Dec-08 09:29N 35°23' E 139°40'0 0.1
2017-Dec-08 08:59N 35°23' E 139°40'0 0.0
2017-Dec-08 08:29N 35°23' E 139°40'0 0.0
2017-Dec-08 07:56N 35°23' E 139°40'0 0.0
2017-Dec-08 07:29N 35°23' E 139°40'0 0.1
2017-Dec-08 06:59N 35°23' E 139°40'1 2.2
2017-Dec-08 06:30N 35°24' E 139°40'1 2.3
2017-Dec-08 06:00N 35°25' E 139°39'0 0.0
2017-Dec-08 05:30N 35°25' E 139°39'0 0.0
2017-Dec-08 04:57N 35°25' E 139°39'0 0.0
2017-Dec-08 04:30N 35°25' E 139°39'0 0.0
2017-Dec-08 04:00N 35°25' E 139°39'0 0.0
2017-Dec-08 03:30N 35°25' E 139°39'0 0.0
2017-Dec-08 03:00N 35°25' E 139°39'0 0.0
2017-Dec-08 02:30N 35°25' E 139°39'3 5.1
2017-Dec-08 02:00N 35°24' E 139°42'5 9.4
2017-Dec-08 01:30N 35°29' E 139°42'3 5.7
2017-Dec-08 00:59N 35°31' E 139°45'0 0.0
2017-Dec-08 00:30N 35°31' E 139°45'0 0.0
2017-Dec-08 00:01N 35°31' E 139°45'0 0.0
2017-Dec-07 23:31N 35°31' E 139°45'0 0.0
2017-Dec-07 23:00N 35°31' E 139°45'0 0.4
2017-Dec-07 22:31N 35°31' E 139°45'3 6.6
2017-Dec-07 22:01N 35°29' E 139°42'4 8.4
2017-Dec-07 21:30N 35°25' E 139°42'2 4.9
2017-Dec-07 21:00N 35°23' E 139°40'0 0.0
2017-Dec-07 20:30N 35°23' E 139°40'0 0.0
2017-Dec-07 20:00N 35°23' E 139°40'0 0.0
2017-Dec-07 19:30N 35°23' E 139°40'0 0.1
2017-Dec-07 18:59N 35°23' E 139°40'0 0.0
2017-Dec-07 18:29N 35°23' E 139°40'0 0.1
2017-Dec-07 17:59N 35°23' E 139°40'0 0.0
2017-Dec-07 17:29N 35°23' E 139°40'0 0.0
2017-Dec-07 16:59N 35°23' E 139°40'0 0.0
2017-Dec-07 16:29N 35°23' E 139°40'0 0.0
2017-Dec-07 15:59N 35°23' E 139°40'0 0.0
2017-Dec-07 15:29N 35°23' E 139°40'0 0.0
2017-Dec-07 14:59N 35°23' E 139°40'0 0.0
2017-Dec-07 14:29N 35°23' E 139°40'0 0.0
2017-Dec-07 13:59N 35°23' E 139°40'0 0.0
2017-Dec-07 13:29N 35°23' E 139°40'0 0.0
2017-Dec-07 12:59N 35°23' E 139°40'0 0.0
2017-Dec-07 12:29N 35°23' E 139°40'0 0.0
2017-Dec-07 11:59N 35°23' E 139°40'0 0.0
2017-Dec-07 11:29N 35°23' E 139°40'0 0.0
2017-Dec-07 10:59N 35°23' E 139°40'0 0.0
2017-Dec-07 10:29N 35°23' E 139°40'0 0.1
2017-Dec-07 09:59N 35°23' E 139°40'0 0.1
2017-Dec-07 09:26N 35°23' E 139°40'0 0.0
2017-Dec-07 08:59N 35°23' E 139°40'0 0.0
2017-Dec-07 08:29N 35°23' E 139°40'0 0.0
2017-Dec-07 07:59N 35°23' E 139°40'0 0.1
2017-Dec-07 07:29N 35°23' E 139°40'0 0.0
2017-Dec-07 06:59N 35°23' E 139°40'2 3.7
2017-Dec-07 06:30N 35°24' E 139°39'0 0.6
2017-Dec-07 05:50N 35°25' E 139°39'0 0.0
2017-Dec-07 05:29N 35°25' E 139°39'0 0.0
2017-Dec-07 04:59N 35°25' E 139°39'0 0.0
2017-Dec-07 04:20N 35°25' E 139°39'0 0.0
2017-Dec-07 03:56N 35°25' E 139°39'0 0.0
2017-Dec-07 03:29N 35°25' E 139°39'0 0.0
2017-Dec-07 02:59N 35°25' E 139°39'0 0.0
2017-Dec-07 02:30N 35°25' E 139°39'2 4.5
2017-Dec-07 02:01N 35°23' E 139°41'5 9.8
2017-Dec-07 01:31N 35°28' E 139°42'4 7.6
2017-Dec-07 01:00N 35°31' E 139°45'0 0.0
2017-Dec-06 23:29N 35°31' E 139°45'0 0.0
2017-Dec-06 22:59N 35°31' E 139°45'0 0.2
2017-Dec-06 22:31N 35°31' E 139°45'4 7.1
2017-Dec-06 22:01N 35°29' E 139°42'4 8.4
2017-Dec-06 21:30N 35°24' E 139°42'2 4.6
2017-Dec-06 21:00N 35°23' E 139°40'  
2017-Dec-04 10:20N 35°29' E 139°42'0 0.1
2017-Dec-04 09:59N 35°29' E 139°42'0 0.1
2017-Dec-04 09:29N 35°29' E 139°42'0 0.1
2017-Dec-04 08:53N 35°29' E 139°42'0 0.1
2017-Dec-04 08:29N 35°29' E 139°42'0 0.0
2017-Dec-04 07:56N 35°29' E 139°42'0 0.1
2017-Dec-04 07:29N 35°29' E 139°42'0 0.1
2017-Dec-04 06:50N 35°29' E 139°42'0 0.1
2017-Dec-04 06:29N 35°29' E 139°42'0 0.1
2017-Dec-04 05:59N 35°29' E 139°42'0 0.0
2017-Dec-04 05:26N 35°29' E 139°42'0 0.0
2017-Dec-04 04:59N 35°29' E 139°42'0 0.0
2017-Dec-04 04:26N 35°29' E 139°42'0 0.0
2017-Dec-04 03:59N 35°29' E 139°42'0 0.0
2017-Dec-04 03:26N 35°29' E 139°42'0 0.1
2017-Dec-04 02:59N 35°29' E 139°42'0 0.1
2017-Dec-04 02:29N 35°29' E 139°42'0 0.0
2017-Dec-04 01:56N 35°29' E 139°42'0 0.0
2017-Dec-04 01:29N 35°29' E 139°42'0 0.0
2017-Dec-04 01:00N 35°29' E 139°42'3 5.3
2017-Dec-04 00:30N 35°27' E 139°44'5 9.1
2017-Dec-04 00:00N 35°29' E 139°49'0 0.0
2017-Dec-03 23:25N 35°29' E 139°49'0 0.0
2017-Dec-03 22:52N 35°29' E 139°49'0 0.0
2017-Dec-03 22:28N 35°29' E 139°49'0 0.0
2017-Dec-03 21:58N 35°29' E 139°49'0 0.0
2017-Dec-03 21:22N 35°29' E 139°49'0 0.0
2017-Dec-03 20:58N 35°29' E 139°49'0 0.0
2017-Dec-03 20:28N 35°29' E 139°49'0 0.0
2017-Dec-03 19:58N 35°29' E 139°49'0 0.0
2017-Dec-03 19:28N 35°29' E 139°49'0 0.0
2017-Dec-03 18:58N 35°29' E 139°49'0 0.0
2017-Dec-03 18:28N 35°29' E 139°49'0 0.0
2017-Dec-03 17:55N 35°29' E 139°49'0 0.0
2017-Dec-03 17:31N 35°29' E 139°49'0 0.0
2017-Dec-03 17:01N 35°29' E 139°49'0 0.0
2017-Dec-03 16:27N 35°29' E 139°49'0 0.0
2017-Dec-03 15:57N 35°29' E 139°49'0 0.0
2017-Dec-03 15:31N 35°29' E 139°49'0 0.0
2017-Dec-03 15:00N 35°29' E 139°49'0 0.0
2017-Dec-03 14:30N 35°29' E 139°49'0 0.0
2017-Dec-03 14:00N 35°29' E 139°49'0 0.0
2017-Dec-03 13:30N 35°29' E 139°49'0 0.0
2017-Dec-03 13:00N 35°29' E 139°49'0 0.0
2017-Dec-03 12:30N 35°29' E 139°49'0 0.0
2017-Dec-03 12:00N 35°29' E 139°49'0 0.0
2017-Dec-03 11:30N 35°29' E 139°49'0 0.0
2017-Dec-03 11:00N 35°29' E 139°49'0 0.0
2017-Dec-03 10:30N 35°29' E 139°49'0 0.0
2017-Dec-03 09:30N 35°29' E 139°49'0 0.1
2017-Dec-03 09:00N 35°29' E 139°49'0 0.1
2017-Dec-03 08:24N 35°29' E 139°49'0 0.1
2017-Dec-03 07:48N 35°29' E 139°49'0 0.0
2017-Dec-03 07:12N 35°29' E 139°49'0 0.0
2017-Dec-03 05:27N 35°29' E 139°49'4 8.3
2017-Dec-03 05:01N 35°31' E 139°45'0 0.7
2017-Dec-03 04:30N 35°31' E 139°45'0 0.0
2017-Dec-03 04:00N 35°31' E 139°45'0 0.0
2017-Dec-03 03:30N 35°31' E 139°45'1 1.1
2017-Dec-03 03:01N 35°31' E 139°45'4 7.8
2017-Dec-03 02:31N 35°27' E 139°43'4 8.1
2017-Dec-03 02:01N 35°24' E 139°40'2 3.1
2017-Dec-03 01:30N 35°25' E 139°39'0 0.0
2017-Dec-03 00:58N 35°25' E 139°39'0 0.0
2017-Dec-03 00:28N 35°25' E 139°39'0 0.0
2017-Dec-02 23:58N 35°25' E 139°39'0 0.0
2017-Dec-02 23:25N 35°25' E 139°39'0 0.5
2017-Dec-02 22:59N 35°25' E 139°39'2 4.1
2017-Dec-02 22:28N 35°23' E 139°40'0 0.0
2017-Dec-02 21:58N 35°23' E 139°40'0 0.0
2017-Dec-02 21:28N 35°23' E 139°40'0 0.0
2017-Dec-02 20:58N 35°23' E 139°40'0 0.0
2017-Dec-02 20:28N 35°23' E 139°40'0 0.0
2017-Dec-02 19:55N 35°23' E 139°40'0 0.0
2017-Dec-02 19:31N 35°23' E 139°40'0 0.0
2017-Dec-02 19:01N 35°23' E 139°40'0 0.0
2017-Dec-02 18:28N 35°23' E 139°40'0 0.0
2017-Dec-02 18:01N 35°23' E 139°40'0 0.0
2017-Dec-02 17:30N 35°23' E 139°40'0 0.0
2017-Dec-02 16:57N 35°23' E 139°40'0 0.0
2017-Dec-02 16:30N 35°23' E 139°40'0 0.0
2017-Dec-02 16:01N 35°23' E 139°40'0 0.0
2017-Dec-02 15:30N 35°23' E 139°40'0 0.0
2017-Dec-02 15:00N 35°23' E 139°40'0 0.1
2017-Dec-02 14:30N 35°23' E 139°40'0 0.0
2017-Dec-02 14:00N 35°23' E 139°40'0 0.0
2017-Dec-02 13:30N 35°23' E 139°40'0 0.0
2017-Dec-02 13:00N 35°23' E 139°40'0 0.0
2017-Dec-02 12:30N 35°23' E 139°40'0 0.0
2017-Dec-02 12:00N 35°23' E 139°40'0 0.0
2017-Dec-02 11:30N 35°23' E 139°40'0 0.0
2017-Dec-02 11:00N 35°23' E 139°40'0 0.0
2017-Dec-02 10:30N 35°23' E 139°40'0 0.0
2017-Dec-02 10:00N 35°23' E 139°40'0 0.0
2017-Dec-02 09:30N 35°23' E 139°40'0 0.0
2017-Dec-02 09:00N 35°23' E 139°40'1 2.6
2017-Dec-02 08:30N 35°24' E 139°41'5 9.6
2017-Dec-02 08:00N 35°28' E 139°42'4 7.5
2017-Dec-02 07:31N 35°31' E 139°45'0 0.0
2017-Dec-02 07:00N 35°31' E 139°45'0 0.0
2017-Dec-02 06:30N 35°31' E 139°45'0 0.0
2017-Dec-02 06:00N 35°31' E 139°45'3 6.8
2017-Dec-02 05:30N 35°29' E 139°42'5 9.6
2017-Dec-02 05:00N 35°24' E 139°42'2 5.0
2017-Dec-02 04:30N 35°25' E 139°39'0 0.0
2017-Dec-02 03:59N 35°25' E 139°39'0 0.0
2017-Dec-02 03:29N 35°25' E 139°39'0 0.0
2017-Dec-02 02:59N 35°25' E 139°39'0 0.0
2017-Dec-02 02:21N 35°25' E 139°39'2 5.2
2017-Dec-02 02:01N 35°24' E 139°41'4 8.6
2017-Dec-02 01:31N 35°28' E 139°42'4 7.6
2017-Dec-02 01:01N 35°31' E 139°45'0 0.8
2017-Dec-02 00:31N 35°31' E 139°45'0 0.0
2017-Dec-02 00:00N 35°31' E 139°45'0 0.0
2017-Dec-01 23:30N 35°31' E 139°45'0 0.0
2017-Dec-01 23:00N 35°31' E 139°45'0 0.0
2017-Dec-01 22:31N 35°31' E 139°45'4 7.1
2017-Dec-01 22:00N 35°29' E 139°42'4 8.0
2017-Dec-01 21:31N 35°25' E 139°42'2 4.4
2017-Dec-01 20:58N 35°23' E 139°40'0 0.0
2017-Dec-01 20:28N 35°23' E 139°40'0 0.0
2017-Dec-01 19:58N 35°23' E 139°40'0 0.0
2017-Dec-01 19:28N 35°23' E 139°40'0 0.0
2017-Dec-01 18:58N 35°23' E 139°40'0 0.0
2017-Dec-01 18:28N 35°23' E 139°40'0 0.0
2017-Dec-01 17:58N 35°23' E 139°40'0 0.0
2017-Dec-01 17:28N 35°23' E 139°40'  
Track history (hours):
 
Tides and Currents Weather Stations Pressure Air Temp Water Temp Dewpoint Dewpoint Depression Visibility Wind Speed Wind Dir Waves Ship Positions

Hakuseimaru No.11

Last reported at 2017-Dec-11 17:00 UTC. Time now 2017-Dec-12 21:53 UTC.
Position N 35°23' E 139°40'.

Length 62 m; draft 3.5 m.

Type: Tanker. MMSI: 431501815.

Date/timePositionNaut miles runAvg speedWind from/ knotsBaromVisibWave heightAir tempDewpointWater temp
2017-Dec-11 17:00N 35°23' E 139°40'0 0.0
2017-Dec-11 16:30N 35°23' E 139°40'0 0.0
2017-Dec-11 16:00N 35°23' E 139°40'0 0.0
2017-Dec-11 15:30N 35°23' E 139°40'0 0.0
2017-Dec-11 15:00N 35°23' E 139°40'0 0.0
2017-Dec-11 14:30N 35°23' E 139°40'0 0.0
2017-Dec-11 14:01N 35°23' E 139°40'0 0.0
2017-Dec-11 13:30N 35°23' E 139°40'0 0.0
2017-Dec-11 13:00N 35°23' E 139°40'0 0.0
2017-Dec-11 12:30N 35°23' E 139°40'0 0.0
2017-Dec-11 12:00N 35°23' E 139°40'0 0.0
2017-Dec-11 11:30N 35°23' E 139°40'0 0.0
2017-Dec-11 10:58N 35°23' E 139°40'0 0.0
2017-Dec-11 10:30N 35°23' E 139°40'0 0.0
2017-Dec-11 10:00N 35°23' E 139°40'0 0.0
2017-Dec-11 09:30N 35°23' E 139°40'0 0.1
2017-Dec-11 09:00N 35°23' E 139°40'0 0.0
2017-Dec-11 08:30N 35°23' E 139°40'0 0.0
2017-Dec-11 08:00N 35°23' E 139°40'0 0.0
2017-Dec-11 07:27N 35°23' E 139°40'0 1.0
2017-Dec-11 07:00N 35°23' E 139°40'2 3.7
2017-Dec-11 06:30N 35°25' E 139°39'0 0.0
2017-Dec-11 05:59N 35°25' E 139°39'0 0.0
2017-Dec-11 05:29N 35°25' E 139°39'0 0.1
2017-Dec-11 04:59N 35°25' E 139°39'0 0.0
2017-Dec-11 04:29N 35°25' E 139°39'0 0.0
2017-Dec-11 03:59N 35°25' E 139°39'0 0.1
2017-Dec-11 03:29N 35°25' E 139°39'0 0.1
2017-Dec-11 02:50N 35°25' E 139°39'1 2.4
2017-Dec-11 02:30N 35°24' E 139°40'3 6.5
2017-Dec-11 02:00N 35°26' E 139°43'4 8.0
2017-Dec-11 01:30N 35°30' E 139°44'1 2.3
2017-Dec-11 01:00N 35°31' E 139°45'0 0.0
2017-Dec-11 00:30N 35°31' E 139°45'0 0.0
2017-Dec-11 00:00N 35°31' E 139°45'0 0.0
2017-Dec-10 23:30N 35°31' E 139°45'0 0.0
2017-Dec-10 23:00N 35°31' E 139°45'0 0.3
2017-Dec-10 22:30N 35°31' E 139°45'4 7.2
2017-Dec-10 22:00N 35°28' E 139°42'4 8.7
2017-Dec-10 21:30N 35°24' E 139°42'2 3.8
2017-Dec-10 21:00N 35°23' E 139°40'0 0.1
2017-Dec-10 20:29N 35°23' E 139°40'0 0.0
2017-Dec-10 19:59N 35°23' E 139°40'0 0.0
2017-Dec-10 19:26N 35°23' E 139°40'0 0.1
2017-Dec-10 18:56N 35°23' E 139°40'0 0.0
2017-Dec-10 18:29N 35°23' E 139°40'0 0.0
2017-Dec-10 17:59N 35°23' E 139°40'0 0.0
2017-Dec-10 17:29N 35°23' E 139°40'0 0.0
2017-Dec-10 16:50N 35°23' E 139°40'0 0.0
2017-Dec-10 16:29N 35°23' E 139°40'0 0.0
2017-Dec-10 15:56N 35°23' E 139°40'0 0.0
2017-Dec-10 15:29N 35°23' E 139°40'0 0.0
2017-Dec-10 14:59N 35°23' E 139°40'0 0.0
2017-Dec-10 14:29N 35°23' E 139°40'0 0.0
2017-Dec-10 13:59N 35°23' E 139°40'0 0.1
2017-Dec-10 13:29N 35°23' E 139°40'0 0.1
2017-Dec-10 12:59N 35°23' E 139°40'0 0.0
2017-Dec-10 12:29N 35°23' E 139°40'0 0.1
2017-Dec-10 11:59N 35°23' E 139°40'0 0.1
2017-Dec-10 11:23N 35°23' E 139°40'0 0.1
2017-Dec-10 10:59N 35°23' E 139°40'0 0.0
2017-Dec-10 10:29N 35°23' E 139°40'0 0.0
2017-Dec-10 09:59N 35°23' E 139°40'0 0.1
2017-Dec-10 09:26N 35°23' E 139°40'0 0.1
2017-Dec-10 08:59N 35°23' E 139°40'0 0.0
2017-Dec-10 08:29N 35°23' E 139°40'0 0.0
2017-Dec-10 07:59N 35°23' E 139°40'0 0.0
2017-Dec-10 07:29N 35°23' E 139°40'0 0.0
2017-Dec-10 06:59N 35°23' E 139°40'2 4.0
2017-Dec-10 06:30N 35°24' E 139°39'0 0.7
2017-Dec-10 06:00N 35°25' E 139°39'0 0.0
2017-Dec-10 05:30N 35°25' E 139°39'0 0.0
2017-Dec-10 05:00N 35°25' E 139°39'0 0.0
2017-Dec-10 04:30N 35°25' E 139°39'0 0.0
2017-Dec-10 04:00N 35°25' E 139°39'0 0.0
2017-Dec-10 03:30N 35°25' E 139°39'0 0.0
2017-Dec-10 03:00N 35°25' E 139°39'0 0.0
2017-Dec-10 02:31N 35°25' E 139°39'3 6.4
2017-Dec-10 02:01N 35°25' E 139°43'510.4
2017-Dec-10 01:31N 35°28' E 139°47'3 6.3
2017-Dec-10 01:00N 35°31' E 139°45'0 0.1
2017-Dec-10 00:30N 35°31' E 139°45'0 0.0
2017-Dec-10 00:00N 35°31' E 139°45'0 0.0
2017-Dec-09 23:30N 35°31' E 139°45'0 0.0
2017-Dec-09 23:01N 35°31' E 139°45'0 0.0
2017-Dec-09 22:30N 35°31' E 139°45'3 6.9
2017-Dec-09 22:01N 35°29' E 139°42'4 8.8
2017-Dec-09 21:30N 35°24' E 139°42'2 4.2
2017-Dec-09 21:01N 35°23' E 139°40'0 0.0
2017-Dec-09 20:28N 35°23' E 139°40'0 0.1
2017-Dec-09 19:58N 35°23' E 139°40'0 0.0
2017-Dec-09 19:28N 35°23' E 139°40'0 0.0
2017-Dec-09 18:58N 35°23' E 139°40'0 0.0
2017-Dec-09 18:28N 35°23' E 139°40'0 0.0
2017-Dec-09 17:58N 35°23' E 139°40'0 0.0
2017-Dec-09 17:28N 35°23' E 139°40'0 0.0
2017-Dec-09 16:58N 35°23' E 139°40'0 0.0
2017-Dec-09 16:28N 35°23' E 139°40'0 0.0
2017-Dec-09 15:58N 35°23' E 139°40'0 0.0
2017-Dec-09 15:28N 35°23' E 139°40'0 0.0
2017-Dec-09 14:58N 35°23' E 139°40'0 0.0
2017-Dec-09 14:28N 35°23' E 139°40'0 0.0
2017-Dec-09 13:58N 35°23' E 139°40'0 0.0
2017-Dec-09 13:28N 35°23' E 139°40'0 0.1
2017-Dec-09 12:58N 35°23' E 139°40'0 0.0
2017-Dec-09 12:28N 35°23' E 139°40'0 0.0
2017-Dec-09 11:58N 35°23' E 139°40'0 0.0
2017-Dec-09 11:28N 35°23' E 139°40'0 0.0
2017-Dec-09 10:58N 35°23' E 139°40'0 0.0
2017-Dec-09 10:28N 35°23' E 139°40'0 0.0
2017-Dec-09 09:55N 35°23' E 139°40'0 0.1
2017-Dec-09 09:28N 35°23' E 139°40'0 0.1
2017-Dec-09 08:58N 35°23' E 139°40'0 0.0
2017-Dec-09 08:28N 35°23' E 139°40'0 0.1
2017-Dec-09 07:55N 35°23' E 139°40'0 0.1
2017-Dec-09 07:25N 35°23' E 139°40'0 0.0
2017-Dec-09 06:58N 35°23' E 139°40'0 0.8
2017-Dec-09 06:30N 35°23' E 139°40'2 3.7
2017-Dec-09 06:00N 35°25' E 139°39'0 0.0
2017-Dec-09 05:29N 35°25' E 139°39'0 0.0
2017-Dec-09 04:56N 35°25' E 139°39'0 0.0
2017-Dec-09 04:29N 35°25' E 139°39'0 0.0
2017-Dec-09 03:59N 35°25' E 139°39'0 0.0
2017-Dec-09 03:26N 35°25' E 139°39'0 0.0
2017-Dec-09 02:59N 35°25' E 139°39'0 0.0
2017-Dec-09 02:29N 35°25' E 139°39'2 4.7
2017-Dec-09 02:01N 35°23' E 139°41'5 9.7
2017-Dec-09 01:30N 35°28' E 139°42'4 7.6
2017-Dec-09 01:00N 35°31' E 139°45'0 0.1
2017-Dec-09 00:29N 35°31' E 139°45'0 0.0
2017-Dec-08 23:59N 35°31' E 139°45'0 0.0
2017-Dec-08 23:30N 35°31' E 139°45'0 0.0
2017-Dec-08 23:00N 35°31' E 139°45'0 0.1
2017-Dec-08 22:31N 35°31' E 139°45'3 6.7
2017-Dec-08 22:01N 35°29' E 139°42'4 7.9
2017-Dec-08 21:30N 35°25' E 139°43'3 5.4
2017-Dec-08 21:00N 35°23' E 139°40'0 0.1
2017-Dec-08 20:30N 35°23' E 139°40'0 0.1
2017-Dec-08 20:00N 35°23' E 139°40'0 0.0
2017-Dec-08 19:30N 35°23' E 139°40'0 0.1
2017-Dec-08 19:00N 35°23' E 139°40'0 0.1
2017-Dec-08 18:31N 35°23' E 139°40'0 0.0
2017-Dec-08 18:00N 35°23' E 139°40'0 0.1
2017-Dec-08 17:31N 35°23' E 139°40'0 0.0
2017-Dec-08 17:00N 35°23' E 139°40'0 0.0
2017-Dec-08 16:30N 35°23' E 139°40'0 0.0
2017-Dec-08 16:01N 35°23' E 139°40'0 0.0
2017-Dec-08 15:30N 35°23' E 139°40'0 0.0
2017-Dec-08 15:01N 35°23' E 139°40'0 0.0
2017-Dec-08 14:31N 35°23' E 139°40'0 0.0
2017-Dec-08 14:01N 35°23' E 139°40'0 0.0
2017-Dec-08 13:31N 35°23' E 139°40'0 0.0
2017-Dec-08 12:59N 35°23' E 139°40'0 0.0
2017-Dec-08 12:29N 35°23' E 139°40'0 0.1
2017-Dec-08 11:59N 35°23' E 139°40'0 0.0
2017-Dec-08 11:29N 35°23' E 139°40'0 0.0
2017-Dec-08 10:56N 35°23' E 139°40'0 0.0
2017-Dec-08 10:29N 35°23' E 139°40'0 0.1
2017-Dec-08 09:59N 35°23' E 139°40'0 0.0
2017-Dec-08 09:29N 35°23' E 139°40'0 0.1
2017-Dec-08 08:59N 35°23' E 139°40'0 0.0
2017-Dec-08 08:29N 35°23' E 139°40'0 0.0
2017-Dec-08 07:56N 35°23' E 139°40'0 0.0
2017-Dec-08 07:29N 35°23' E 139°40'0 0.1
2017-Dec-08 06:59N 35°23' E 139°40'1 2.2
2017-Dec-08 06:30N 35°24' E 139°40'1 2.3
2017-Dec-08 06:00N 35°25' E 139°39'0 0.0
2017-Dec-08 05:30N 35°25' E 139°39'0 0.0
2017-Dec-08 04:57N 35°25' E 139°39'0 0.0
2017-Dec-08 04:30N 35°25' E 139°39'0 0.0
2017-Dec-08 04:00N 35°25' E 139°39'0 0.0
2017-Dec-08 03:30N 35°25' E 139°39'0 0.0
2017-Dec-08 03:00N 35°25' E 139°39'0 0.0
2017-Dec-08 02:30N 35°25' E 139°39'3 5.1
2017-Dec-08 02:00N 35°24' E 139°42'5 9.4
2017-Dec-08 01:30N 35°29' E 139°42'3 5.7
2017-Dec-08 00:59N 35°31' E 139°45'0 0.0
2017-Dec-08 00:30N 35°31' E 139°45'0 0.0
2017-Dec-08 00:01N 35°31' E 139°45'0 0.0
2017-Dec-07 23:31N 35°31' E 139°45'0 0.0
2017-Dec-07 23:00N 35°31' E 139°45'0 0.4
2017-Dec-07 22:31N 35°31' E 139°45'3 6.6
2017-Dec-07 22:01N 35°29' E 139°42'4 8.4
2017-Dec-07 21:30N 35°25' E 139°42'2 4.9
2017-Dec-07 21:00N 35°23' E 139°40'0 0.0
2017-Dec-07 20:30N 35°23' E 139°40'0 0.0
2017-Dec-07 20:00N 35°23' E 139°40'0 0.0
2017-Dec-07 19:30N 35°23' E 139°40'0 0.1
2017-Dec-07 18:59N 35°23' E 139°40'0 0.0
2017-Dec-07 18:29N 35°23' E 139°40'0 0.1
2017-Dec-07 17:59N 35°23' E 139°40'0 0.0
2017-Dec-07 17:29N 35°23' E 139°40'0 0.0
2017-Dec-07 16:59N 35°23' E 139°40'0 0.0
2017-Dec-07 16:29N 35°23' E 139°40'0 0.0
2017-Dec-07 15:59N 35°23' E 139°40'0 0.0
2017-Dec-07 15:29N 35°23' E 139°40'0 0.0
2017-Dec-07 14:59N 35°23' E 139°40'0 0.0
2017-Dec-07 14:29N 35°23' E 139°40'0 0.0
2017-Dec-07 13:59N 35°23' E 139°40'0 0.0
2017-Dec-07 13:29N 35°23' E 139°40'0 0.0
2017-Dec-07 12:59N 35°23' E 139°40'0 0.0
2017-Dec-07 12:29N 35°23' E 139°40'0 0.0
2017-Dec-07 11:59N 35°23' E 139°40'0 0.0
2017-Dec-07 11:29N 35°23' E 139°40'0 0.0
2017-Dec-07 10:59N 35°23' E 139°40'0 0.0
2017-Dec-07 10:29N 35°23' E 139°40'0 0.1
2017-Dec-07 09:59N 35°23' E 139°40'0 0.1
2017-Dec-07 09:26N 35°23' E 139°40'0 0.0
2017-Dec-07 08:59N 35°23' E 139°40'0 0.0
2017-Dec-07 08:29N 35°23' E 139°40'0 0.0
2017-Dec-07 07:59N 35°23' E 139°40'0 0.1
2017-Dec-07 07:29N 35°23' E 139°40'0 0.0
2017-Dec-07 06:59N 35°23' E 139°40'2 3.7
2017-Dec-07 06:30N 35°24' E 139°39'0 0.6
2017-Dec-07 05:50N 35°25' E 139°39'0 0.0
2017-Dec-07 05:29N 35°25' E 139°39'0 0.0
2017-Dec-07 04:59N 35°25' E 139°39'0 0.0
2017-Dec-07 04:20N 35°25' E 139°39'0 0.0
2017-Dec-07 03:56N 35°25' E 139°39'0 0.0
2017-Dec-07 03:29N 35°25' E 139°39'0 0.0
2017-Dec-07 02:59N 35°25' E 139°39'0 0.0
2017-Dec-07 02:30N 35°25' E 139°39'2 4.5
2017-Dec-07 02:01N 35°23' E 139°41'5 9.8
2017-Dec-07 01:31N 35°28' E 139°42'4 7.6
2017-Dec-07 01:00N 35°31' E 139°45'0 0.0
2017-Dec-06 23:29N 35°31' E 139°45'0 0.0
2017-Dec-06 22:59N 35°31' E 139°45'0 0.2
2017-Dec-06 22:31N 35°31' E 139°45'4 7.1
2017-Dec-06 22:01N 35°29' E 139°42'4 8.4
2017-Dec-06 21:30N 35°24' E 139°42'2 4.6
2017-Dec-06 21:00N 35°23' E 139°40'  
2017-Dec-04 10:20N 35°29' E 139°42'0 0.1
2017-Dec-04 09:59N 35°29' E 139°42'0 0.1
2017-Dec-04 09:29N 35°29' E 139°42'0 0.1
2017-Dec-04 08:53N 35°29' E 139°42'0 0.1
2017-Dec-04 08:29N 35°29' E 139°42'0 0.0
2017-Dec-04 07:56N 35°29' E 139°42'0 0.1
2017-Dec-04 07:29N 35°29' E 139°42'0 0.1
2017-Dec-04 06:50N 35°29' E 139°42'0 0.1
2017-Dec-04 06:29N 35°29' E 139°42'0 0.1
2017-Dec-04 05:59N 35°29' E 139°42'0 0.0
2017-Dec-04 05:26N 35°29' E 139°42'0 0.0
2017-Dec-04 04:59N 35°29' E 139°42'0 0.0
2017-Dec-04 04:26N 35°29' E 139°42'0 0.0
2017-Dec-04 03:59N 35°29' E 139°42'0 0.0
2017-Dec-04 03:26N 35°29' E 139°42'0 0.1
2017-Dec-04 02:59N 35°29' E 139°42'0 0.1
2017-Dec-04 02:29N 35°29' E 139°42'0 0.0
2017-Dec-04 01:56N 35°29' E 139°42'0 0.0
2017-Dec-04 01:29N 35°29' E 139°42'0 0.0
2017-Dec-04 01:00N 35°29' E 139°42'3 5.3
2017-Dec-04 00:30N 35°27' E 139°44'5 9.1
2017-Dec-04 00:00N 35°29' E 139°49'0 0.0
2017-Dec-03 23:25N 35°29' E 139°49'0 0.0
2017-Dec-03 22:52N 35°29' E 139°49'0 0.0
2017-Dec-03 22:28N 35°29' E 139°49'0 0.0
2017-Dec-03 21:58N 35°29' E 139°49'0 0.0
2017-Dec-03 21:22N 35°29' E 139°49'0 0.0
2017-Dec-03 20:58N 35°29' E 139°49'0 0.0
2017-Dec-03 20:28N 35°29' E 139°49'0 0.0
2017-Dec-03 19:58N 35°29' E 139°49'0 0.0
2017-Dec-03 19:28N 35°29' E 139°49'0 0.0
2017-Dec-03 18:58N 35°29' E 139°49'0 0.0
2017-Dec-03 18:28N 35°29' E 139°49'0 0.0
2017-Dec-03 17:55N 35°29' E 139°49'0 0.0
2017-Dec-03 17:31N 35°29' E 139°49'0 0.0
2017-Dec-03 17:01N 35°29' E 139°49'0 0.0
2017-Dec-03 16:27N 35°29' E 139°49'0 0.0
2017-Dec-03 15:57N 35°29' E 139°49'0 0.0
2017-Dec-03 15:31N 35°29' E 139°49'0 0.0
2017-Dec-03 15:00N 35°29' E 139°49'0 0.0
2017-Dec-03 14:30N 35°29' E 139°49'0 0.0
2017-Dec-03 14:00N 35°29' E 139°49'0 0.0
2017-Dec-03 13:30N 35°29' E 139°49'0 0.0
2017-Dec-03 13:00N 35°29' E 139°49'0 0.0
2017-Dec-03 12:30N 35°29' E 139°49'0 0.0
2017-Dec-03 12:00N 35°29' E 139°49'0 0.0
2017-Dec-03 11:30N 35°29' E 139°49'0 0.0
2017-Dec-03 11:00N 35°29' E 139°49'0 0.0
2017-Dec-03 10:30N 35°29' E 139°49'0 0.0
2017-Dec-03 09:30N 35°29' E 139°49'0 0.1
2017-Dec-03 09:00N 35°29' E 139°49'0 0.1
2017-Dec-03 08:24N 35°29' E 139°49'0 0.1
2017-Dec-03 07:48N 35°29' E 139°49'0 0.0
2017-Dec-03 07:12N 35°29' E 139°49'0 0.0
2017-Dec-03 05:27N 35°29' E 139°49'4 8.3
2017-Dec-03 05:01N 35°31' E 139°45'0 0.7
2017-Dec-03 04:30N 35°31' E 139°45'0 0.0
2017-Dec-03 04:00N 35°31' E 139°45'0 0.0
2017-Dec-03 03:30N 35°31' E 139°45'1 1.1
2017-Dec-03 03:01N 35°31' E 139°45'4 7.8
2017-Dec-03 02:31N 35°27' E 139°43'4 8.1
2017-Dec-03 02:01N 35°24' E 139°40'2 3.1
2017-Dec-03 01:30N 35°25' E 139°39'0 0.0
2017-Dec-03 00:58N 35°25' E 139°39'0 0.0
2017-Dec-03 00:28N 35°25' E 139°39'0 0.0
2017-Dec-02 23:58N 35°25' E 139°39'0 0.0
2017-Dec-02 23:25N 35°25' E 139°39'0 0.5
2017-Dec-02 22:59N 35°25' E 139°39'2 4.1
2017-Dec-02 22:28N 35°23' E 139°40'0 0.0
2017-Dec-02 21:58N 35°23' E 139°40'0 0.0
2017-Dec-02 21:28N 35°23' E 139°40'0 0.0
2017-Dec-02 20:58N 35°23' E 139°40'0 0.0
2017-Dec-02 20:28N 35°23' E 139°40'0 0.0
2017-Dec-02 19:55N 35°23' E 139°40'0 0.0
2017-Dec-02 19:31N 35°23' E 139°40'0 0.0
2017-Dec-02 19:01N 35°23' E 139°40'0 0.0
2017-Dec-02 18:28N 35°23' E 139°40'0 0.0
2017-Dec-02 18:01N 35°23' E 139°40'0 0.0
2017-Dec-02 17:30N 35°23' E 139°40'0 0.0
2017-Dec-02 16:57N 35°23' E 139°40'0 0.0
2017-Dec-02 16:30N 35°23' E 139°40'0 0.0
2017-Dec-02 16:01N 35°23' E 139°40'0 0.0
2017-Dec-02 15:30N 35°23' E 139°40'0 0.0
2017-Dec-02 15:00N 35°23' E 139°40'0 0.1
2017-Dec-02 14:30N 35°23' E 139°40'0 0.0
2017-Dec-02 14:00N 35°23' E 139°40'0 0.0
2017-Dec-02 13:30N 35°23' E 139°40'0 0.0
2017-Dec-02 13:00N 35°23' E 139°40'0 0.0
2017-Dec-02 12:30N 35°23' E 139°40'0 0.0
2017-Dec-02 12:00N 35°23' E 139°40'0 0.0
2017-Dec-02 11:30N 35°23' E 139°40'0 0.0
2017-Dec-02 11:00N 35°23' E 139°40'0 0.0
2017-Dec-02 10:30N 35°23' E 139°40'0 0.0
2017-Dec-02 10:00N 35°23' E 139°40'0 0.0
2017-Dec-02 09:30N 35°23' E 139°40'0 0.0
2017-Dec-02 09:00N 35°23' E 139°40'1 2.6
2017-Dec-02 08:30N 35°24' E 139°41'5 9.6
2017-Dec-02 08:00N 35°28' E 139°42'4 7.5
2017-Dec-02 07:31N 35°31' E 139°45'0 0.0
2017-Dec-02 07:00N 35°31' E 139°45'0 0.0
2017-Dec-02 06:30N 35°31' E 139°45'0 0.0
2017-Dec-02 06:00N 35°31' E 139°45'3 6.8
2017-Dec-02 05:30N 35°29' E 139°42'5 9.6
2017-Dec-02 05:00N 35°24' E 139°42'2 5.0
2017-Dec-02 04:30N 35°25' E 139°39'0 0.0
2017-Dec-02 03:59N 35°25' E 139°39'0 0.0
2017-Dec-02 03:29N 35°25' E 139°39'0 0.0
2017-Dec-02 02:59N 35°25' E 139°39'0 0.0
2017-Dec-02 02:21N 35°25' E 139°39'2 5.2
2017-Dec-02 02:01N 35°24' E 139°41'4 8.6
2017-Dec-02 01:31N 35°28' E 139°42'4 7.6
2017-Dec-02 01:01N 35°31' E 139°45'0 0.8
2017-Dec-02 00:31N 35°31' E 139°45'0 0.0
2017-Dec-02 00:00N 35°31' E 139°45'0 0.0
2017-Dec-01 23:30N 35°31' E 139°45'0 0.0
2017-Dec-01 23:00N 35°31' E 139°45'0 0.0
2017-Dec-01 22:31N 35°31' E 139°45'4 7.1
2017-Dec-01 22:00N 35°29' E 139°42'4 8.0
2017-Dec-01 21:31N 35°25' E 139°42'2 4.4
2017-Dec-01 20:58N 35°23' E 139°40'0 0.0
2017-Dec-01 20:28N 35°23' E 139°40'0 0.0
2017-Dec-01 19:58N 35°23' E 139°40'0 0.0
2017-Dec-01 19:28N 35°23' E 139°40'0 0.0
2017-Dec-01 18:58N 35°23' E 139°40'0 0.0
2017-Dec-01 18:28N 35°23' E 139°40'0 0.0
2017-Dec-01 17:58N 35°23' E 139°40'0 0.0
2017-Dec-01 17:28N 35°23' E 139°40'  

Dump ship's entire track history